Language selection

My Weather Profile Weather Topics  | 

Juan de Fuca Strait - west entrance: Past 24 Hour Conditions

 

English Bay - 46304

07:00 PM PST 08 December 2022Buoy position: 49.3N 123.36W
Disclaimer

This table is a summary of hourly weather conditions for the past 24 hours.
Please note that these observations might not always be representative of weather conditions over their associated marine area.

Date / Time
(PST)
Wind(knots) Wave height(m) Wave period(s) Pressure(kPa) Air tempC) Water tempC)
08 December 2022
19:00 E 9 gust 11 0.2 2.4 101.2 6 7
18:00 E 10 gust 11 0.2 2.6 101.2 6 7
17:00 E 8 gust 10 0.3 2.8 101.2 6 7
16:00 ESE 10 gust 12 0.5 2.8 101.2 7 7
15:00 SE 13 gust 15 0.6 3.1 101.2 7 7
14:00 SE 17 gust 20 0.6 3.1 101.1 7 7
13:00 SE 12 gust 17 0.6 3.0 101.2 7 7
12:00 ESE 15 gust 18 0.6 2.9 101.2 7 7
11:00 E 15 gust 19 0.6 3.0 101.2 6 7
10:00 E 16 gust 19 0.5 2.9 101.2 6 7
9:00 E 12 gust 16 0.5 3.2 101.2 7 7
8:00 E 13 gust 16 0.7 3.4 101.2 7 7
7:00 ESE 11 gust 16 0.7 3.3 101.1 7 7
6:00 E 14 gust 21 0.7 3.3 101.1 6 7
5:00 E 17 gust 22 0.7 3.4 101.0 6 7
4:00 E 21 gust 27 0.8 3.2 101.0 6 8
3:00 E 19 gust 23 0.7 3.2 101.0 6 8
2:00 E 21 gust 26 0.7 3.2 101.0 7 7
1:00 E 21 gust 26 0.6 2.8 101.1 7 7
0:00 E 22 gust 25 0.6 2.8 101.2 7 7
07 December 2022
23:00 E 20 gust 25 0.6 2.9 101.3 7 7
22:00 E 21 gust 26 0.5 2.8 101.4 7 7
21:00 E 18 gust 21 0.5 2.8 101.5 7 7
20:00 E 17 gust 22 0.5 2.8 101.5 7 7
19:00 E 13 gust 17 0.3 2.2 101.6 6 7

Zoom-in to make a selection

Map of Pacific - Georgia Basin marine weather areas Sentry Shoal - 46131 Halibut Bank - 46146 La Perouse Bank - 46206 Georgia Strait - 46303 English Bay - 46304 Discovery Island Esquimalt Harbour Kelp Reefs Malahat Race Rocks Lightstation Saturna Island Sheringham Point University of Victoria Victoria Gonzales Victoria Int'l Airport Ballenas Islands Campbell River Airport Comox Airport Entrance Island Fanny Island Nanaimo Airport Sisters Islets Estevan Point Port Alberni Tofino Airport Grief Point Howe Sound - Pam Rocks Powell River Airport Sechelt Squamish Airport Point Atkinson Sand Heads Lightstation Tsawwassen Ferry Terminal Vancouver Int'l Airport Vancouver Harbour West Vancouver
Legend:
buoy Buoy
land station Land Station

Pacific - Georgia Basin Area

Another Region

What we are doing

Date modified: